sensor_id;sensor_type;location;lat;lon;timestamp;temperature;humidity
23499;DHT22;11926;48.120;11.562;2023-05-10T00:01:37;15.50;95.20
23499;DHT22;11926;48.120;11.562;2023-05-10T00:04:24;15.40;95.20
23499;DHT22;11926;48.120;11.562;2023-05-10T00:07:13;15.40;95.30
23499;DHT22;11926;48.120;11.562;2023-05-10T00:10:03;15.40;95.40
23499;DHT22;11926;48.120;11.562;2023-05-10T00:12:50;15.40;95.40
23499;DHT22;11926;48.120;11.562;2023-05-10T00:15:37;15.40;95.40
23499;DHT22;11926;48.120;11.562;2023-05-10T00:18:26;15.40;95.40
23499;DHT22;11926;48.120;11.562;2023-05-10T00:21:13;15.40;95.40
23499;DHT22;11926;48.120;11.562;2023-05-10T00:24:00;15.40;95.50
23499;DHT22;11926;48.120;11.562;2023-05-10T00:26:48;15.40;95.60
23499;DHT22;11926;48.120;11.562;2023-05-10T00:29:35;15.40;95.60
23499;DHT22;11926;48.120;11.562;2023-05-10T00:32:22;15.30;95.70
23499;DHT22;11926;48.120;11.562;2023-05-10T00:35:10;15.30;95.60
23499;DHT22;11926;48.120;11.562;2023-05-10T00:37:58;15.30;95.60
23499;DHT22;11926;48.120;11.562;2023-05-10T00:40:45;15.20;95.70
23499;DHT22;11926;48.120;11.562;2023-05-10T00:43:41;15.30;95.80
23499;DHT22;11926;48.120;11.562;2023-05-10T00:46:28;15.30;95.80
23499;DHT22;11926;48.120;11.562;2023-05-10T00:49:16;15.20;95.80
23499;DHT22;11926;48.120;11.562;2023-05-10T00:52:05;15.20;95.80
23499;DHT22;11926;48.120;11.562;2023-05-10T00:54:52;15.20;96.20
23499;DHT22;11926;48.120;11.562;2023-05-10T00:57:40;15.20;96.00
23499;DHT22;11926;48.120;11.562;2023-05-10T01:00:27;15.10;96.10
23499;DHT22;11926;48.120;11.562;2023-05-10T01:03:15;15.10;96.00
23499;DHT22;11926;48.120;11.562;2023-05-10T01:06:03;15.10;96.10
23499;DHT22;11926;48.120;11.562;2023-05-10T01:08:51;15.10;96.10
23499;DHT22;11926;48.120;11.562;2023-05-10T01:11:40;15.10;96.10
23499;DHT22;11926;48.120;11.562;2023-05-10T01:14:27;15.00;96.10
23499;DHT22;11926;48.120;11.562;2023-05-10T01:17:15;15.00;96.10
23499;DHT22;11926;48.120;11.562;2023-05-10T01:20:03;15.00;96.20
23499;DHT22;11926;48.120;11.562;2023-05-10T01:23:04;15.00;96.40
23499;DHT22;11926;48.120;11.562;2023-05-10T01:26:14;14.90;96.30
23499;DHT22;11926;48.120;11.562;2023-05-10T01:35:18;14.90;96.50
23499;DHT22;11926;48.120;11.562;2023-05-10T01:38:16;14.90;96.50
23499;DHT22;11926;48.120;11.562;2023-05-10T01:41:12;14.90;96.40
23499;DHT22;11926;48.120;11.562;2023-05-10T01:44:09;14.90;96.40
23499;DHT22;11926;48.120;11.562;2023-05-10T01:47:05;14.90;96.50
23499;DHT22;11926;48.120;11.562;2023-05-10T01:49:55;14.80;96.50
23499;DHT22;11926;48.120;11.562;2023-05-10T01:52:50;14.90;96.50
23499;DHT22;11926;48.120;11.562;2023-05-10T01:55:43;14.90;96.60
23499;DHT22;11926;48.120;11.562;2023-05-10T01:58:32;14.80;96.50
23499;DHT22;11926;48.120;11.562;2023-05-10T02:01:21;14.70;96.40
23499;DHT22;11926;48.120;11.562;2023-05-10T02:04:11;14.70;96.60
23499;DHT22;11926;48.120;11.562;2023-05-10T02:07:01;14.80;96.70
23499;DHT22;11926;48.120;11.562;2023-05-10T02:09:55;14.80;96.70
23499;DHT22;11926;48.120;11.562;2023-05-10T02:12:46;14.80;96.70
23499;DHT22;11926;48.120;11.562;2023-05-10T02:15:35;14.80;96.80
23499;DHT22;11926;48.120;11.562;2023-05-10T02:18:24;14.80;96.70
23499;DHT22;11926;48.120;11.562;2023-05-10T02:21:14;14.80;96.70
23499;DHT22;11926;48.120;11.562;2023-05-10T02:24:03;14.80;96.70
23499;DHT22;11926;48.120;11.562;2023-05-10T02:26:54;14.80;96.70
23499;DHT22;11926;48.120;11.562;2023-05-10T02:29:43;14.70;96.70
23499;DHT22;11926;48.120;11.562;2023-05-10T02:32:31;14.70;96.70
23499;DHT22;11926;48.120;11.562;2023-05-10T02:35:19;14.70;96.90
23499;DHT22;11926;48.120;11.562;2023-05-10T02:38:06;14.70;97.00
23499;DHT22;11926;48.120;11.562;2023-05-10T02:40:55;14.70;96.90
23499;DHT22;11926;48.120;11.562;2023-05-10T02:43:46;14.70;97.00
23499;DHT22;11926;48.120;11.562;2023-05-10T02:46:34;14.60;96.90
23499;DHT22;11926;48.120;11.562;2023-05-10T02:49:22;14.70;97.00
23499;DHT22;11926;48.120;11.562;2023-05-10T02:52:10;14.60;97.10
23499;DHT22;11926;48.120;11.562;2023-05-10T02:55:03;14.70;97.10
23499;DHT22;11926;48.120;11.562;2023-05-10T02:57:55;14.60;97.10
23499;DHT22;11926;48.120;11.562;2023-05-10T03:00:45;14.60;97.10
23499;DHT22;11926;48.120;11.562;2023-05-10T03:03:33;14.60;97.20
23499;DHT22;11926;48.120;11.562;2023-05-10T03:06:20;14.50;97.20
23499;DHT22;11926;48.120;11.562;2023-05-10T03:09:07;14.60;97.30
23499;DHT22;11926;48.120;11.562;2023-05-10T03:12:02;14.50;97.30
23499;DHT22;11926;48.120;11.562;2023-05-10T03:15:00;14.60;97.30
23499;DHT22;11926;48.120;11.562;2023-05-10T03:18:01;14.50;97.20
23499;DHT22;11926;48.120;11.562;2023-05-10T03:20:50;14.50;97.30
23499;DHT22;11926;48.120;11.562;2023-05-10T03:23:41;14.50;97.80
23499;DHT22;11926;48.120;11.562;2023-05-10T03:26:30;14.40;97.40
23499;DHT22;11926;48.120;11.562;2023-05-10T03:29:26;14.50;97.40
23499;DHT22;11926;48.120;11.562;2023-05-10T03:32:14;14.50;97.40
23499;DHT22;11926;48.120;11.562;2023-05-10T03:35:06;14.50;97.40
23499;DHT22;11926;48.120;11.562;2023-05-10T03:37:54;14.50;97.40
23499;DHT22;11926;48.120;11.562;2023-05-10T03:40:42;14.40;97.30
23499;DHT22;11926;48.120;11.562;2023-05-10T03:43:29;14.40;97.50
23499;DHT22;11926;48.120;11.562;2023-05-10T03:46:16;14.40;97.50
23499;DHT22;11926;48.120;11.562;2023-05-10T03:49:03;14.40;97.60
23499;DHT22;11926;48.120;11.562;2023-05-10T03:51:52;14.40;97.60
23499;DHT22;11926;48.120;11.562;2023-05-10T03:54:39;14.40;97.50
23499;DHT22;11926;48.120;11.562;2023-05-10T03:57:26;14.40;97.60
23499;DHT22;11926;48.120;11.562;2023-05-10T04:00:13;14.40;97.70
23499;DHT22;11926;48.120;11.562;2023-05-10T04:03:01;14.40;97.70
23499;DHT22;11926;48.120;11.562;2023-05-10T04:05:48;14.40;97.70
23499;DHT22;11926;48.120;11.562;2023-05-10T04:08:36;14.40;97.70
23499;DHT22;11926;48.120;11.562;2023-05-10T04:11:23;14.40;97.80
23499;DHT22;11926;48.120;11.562;2023-05-10T04:14:10;14.40;97.80
23499;DHT22;11926;48.120;11.562;2023-05-10T04:16:58;14.40;97.90
23499;DHT22;11926;48.120;11.562;2023-05-10T04:19:45;14.50;97.90
23499;DHT22;11926;48.120;11.562;2023-05-10T04:22:32;14.50;97.90
23499;DHT22;11926;48.120;11.562;2023-05-10T04:25:21;14.50;97.90
23499;DHT22;11926;48.120;11.562;2023-05-10T04:28:08;14.50;97.90
23499;DHT22;11926;48.120;11.562;2023-05-10T04:31:01;14.50;98.00
23499;DHT22;11926;48.120;11.562;2023-05-10T04:33:48;14.60;97.90
23499;DHT22;11926;48.120;11.562;2023-05-10T04:36:36;14.50;97.80
23499;DHT22;11926;48.120;11.562;2023-05-10T04:39:23;14.50;97.90
23499;DHT22;11926;48.120;11.562;2023-05-10T04:42:11;14.60;97.90
23499;DHT22;11926;48.120;11.562;2023-05-10T04:45:00;14.60;97.90
23499;DHT22;11926;48.120;11.562;2023-05-10T04:47:47;14.60;97.70
23499;DHT22;11926;48.120;11.562;2023-05-10T04:50:34;14.60;97.70
23499;DHT22;11926;48.120;11.562;2023-05-10T04:53:22;14.60;98.10
23499;DHT22;11926;48.120;11.562;2023-05-10T04:56:09;14.60;97.70
23499;DHT22;11926;48.120;11.562;2023-05-10T04:58:58;14.60;97.70
23499;DHT22;11926;48.120;11.562;2023-05-10T05:01:45;14.50;97.60
23499;DHT22;11926;48.120;11.562;2023-05-10T05:04:32;14.50;97.60
23499;DHT22;11926;48.120;11.562;2023-05-10T05:07:19;14.50;97.50
23499;DHT22;11926;48.120;11.562;2023-05-10T05:10:07;14.40;97.50
23499;DHT22;11926;48.120;11.562;2023-05-10T05:12:55;14.30;97.50
23499;DHT22;11926;48.120;11.562;2023-05-10T05:15:44;14.30;97.40
23499;DHT22;11926;48.120;11.562;2023-05-10T05:18:31;14.30;97.50
23499;DHT22;11926;48.120;11.562;2023-05-10T05:21:19;14.20;97.60
23499;DHT22;11926;48.120;11.562;2023-05-10T05:24:07;14.20;97.60
23499;DHT22;11926;48.120;11.562;2023-05-10T05:26:55;14.20;97.70
23499;DHT22;11926;48.120;11.562;2023-05-10T05:29:42;14.20;97.80
23499;DHT22;11926;48.120;11.562;2023-05-10T05:32:31;14.20;97.90
23499;DHT22;11926;48.120;11.562;2023-05-10T05:35:18;14.20;97.90
23499;DHT22;11926;48.120;11.562;2023-05-10T05:38:05;14.20;97.80
23499;DHT22;11926;48.120;11.562;2023-05-10T05:40:53;14.20;97.90
23499;DHT22;11926;48.120;11.562;2023-05-10T05:43:40;14.10;97.80
23499;DHT22;11926;48.120;11.562;2023-05-10T05:46:27;14.10;97.90
23499;DHT22;11926;48.120;11.562;2023-05-10T05:49:16;14.10;97.90
23499;DHT22;11926;48.120;11.562;2023-05-10T05:52:03;14.10;98.00
23499;DHT22;11926;48.120;11.562;2023-05-10T05:54:51;14.10;98.10
23499;DHT22;11926;48.120;11.562;2023-05-10T05:57:39;14.10;98.10
23499;DHT22;11926;48.120;11.562;2023-05-10T06:00:26;14.10;98.00
23499;DHT22;11926;48.120;11.562;2023-05-10T06:03:13;14.20;98.10
23499;DHT22;11926;48.120;11.562;2023-05-10T06:06:03;14.20;98.10
23499;DHT22;11926;48.120;11.562;2023-05-10T06:08:50;14.30;98.10
23499;DHT22;11926;48.120;11.562;2023-05-10T06:11:37;14.30;97.80
23499;DHT22;11926;48.120;11.562;2023-05-10T06:14:25;14.40;97.90
23499;DHT22;11926;48.120;11.562;2023-05-10T06:17:12;14.40;97.80
23499;DHT22;11926;48.120;11.562;2023-05-10T06:19:59;14.50;97.90
23499;DHT22;11926;48.120;11.562;2023-05-10T06:22:48;14.50;97.70
23499;DHT22;11926;48.120;11.562;2023-05-10T06:25:36;14.50;98.10
23499;DHT22;11926;48.120;11.562;2023-05-10T06:28:23;14.50;97.70
23499;DHT22;11926;48.120;11.562;2023-05-10T06:31:10;14.60;97.60
23499;DHT22;11926;48.120;11.562;2023-05-10T06:33:58;14.50;97.50
23499;DHT22;11926;48.120;11.562;2023-05-10T06:36:45;14.60;97.40
23499;DHT22;11926;48.120;11.562;2023-05-10T06:39:34;14.60;97.50
23499;DHT22;11926;48.120;11.562;2023-05-10T06:42:22;14.70;97.40
23499;DHT22;11926;48.120;11.562;2023-05-10T06:45:11;14.70;97.50
23499;DHT22;11926;48.120;11.562;2023-05-10T06:47:59;14.70;97.40
23499;DHT22;11926;48.120;11.562;2023-05-10T06:50:46;14.80;97.40
23499;DHT22;11926;48.120;11.562;2023-05-10T06:53:34;14.80;97.30
23499;DHT22;11926;48.120;11.562;2023-05-10T06:56:23;14.90;97.40
23499;DHT22;11926;48.120;11.562;2023-05-10T06:59:10;15.00;97.20
23499;DHT22;11926;48.120;11.562;2023-05-10T07:01:59;15.00;97.00
23499;DHT22;11926;48.120;11.562;2023-05-10T07:04:47;15.00;97.20
23499;DHT22;11926;48.120;11.562;2023-05-10T07:07:35;15.20;97.10
23499;DHT22;11926;48.120;11.562;2023-05-10T07:10:22;15.50;96.80
23499;DHT22;11926;48.120;11.562;2023-05-10T07:13:11;15.70;96.30
23499;DHT22;11926;48.120;11.562;2023-05-10T07:15:58;15.90;95.90
23499;DHT22;11926;48.120;11.562;2023-05-10T07:18:45;16.00;95.90
23499;DHT22;11926;48.120;11.562;2023-05-10T07:21:32;16.10;95.50
23499;DHT22;11926;48.120;11.562;2023-05-10T07:24:21;16.20;95.50
23499;DHT22;11926;48.120;11.562;2023-05-10T07:27:09;16.30;95.30
23499;DHT22;11926;48.120;11.562;2023-05-10T07:29:58;16.60;94.80
23499;DHT22;11926;48.120;11.562;2023-05-10T07:32:46;16.70;94.30
23499;DHT22;11926;48.120;11.562;2023-05-10T07:35:33;16.90;94.10
23499;DHT22;11926;48.120;11.562;2023-05-10T07:38:21;17.10;93.70
23499;DHT22;11926;48.120;11.562;2023-05-10T07:41:08;17.50;93.50
23499;DHT22;11926;48.120;11.562;2023-05-10T07:43:56;17.90;92.30
23499;DHT22;11926;48.120;11.562;2023-05-10T07:46:44;18.10;91.90
23499;DHT22;11926;48.120;11.562;2023-05-10T07:49:31;18.60;91.10
23499;DHT22;11926;48.120;11.562;2023-05-10T07:52:19;18.90;90.60
23499;DHT22;11926;48.120;11.562;2023-05-10T07:55:08;19.20;90.00
23499;DHT22;11926;48.120;11.562;2023-05-10T07:57:56;19.40;87.80
23499;DHT22;11926;48.120;11.562;2023-05-10T08:00:43;19.50;87.60
23499;DHT22;11926;48.120;11.562;2023-05-10T08:03:32;19.70;87.40
23499;DHT22;11926;48.120;11.562;2023-05-10T08:06:20;20.40;85.60
23499;DHT22;11926;48.120;11.562;2023-05-10T08:09:08;20.90;82.40
23499;DHT22;11926;48.120;11.562;2023-05-10T08:11:56;20.80;80.10
23499;DHT22;11926;48.120;11.562;2023-05-10T08:14:47;20.40;79.70
23499;DHT22;11926;48.120;11.562;2023-05-10T08:17:34;19.90;80.40
23499;DHT22;11926;48.120;11.562;2023-05-10T08:20:23;19.50;81.70
23499;DHT22;11926;48.120;11.562;2023-05-10T08:23:11;19.30;82.40
23499;DHT22;11926;48.120;11.562;2023-05-10T08:25:59;19.10;82.20
23499;DHT22;11926;48.120;11.562;2023-05-10T08:28:47;18.90;82.80
23499;DHT22;11926;48.120;11.562;2023-05-10T08:31:34;18.80;83.30
23499;DHT22;11926;48.120;11.562;2023-05-10T08:34:21;18.50;82.50
23499;DHT22;11926;48.120;11.562;2023-05-10T08:37:11;18.20;83.20
23499;DHT22;11926;48.120;11.562;2023-05-10T08:39:59;18.00;84.40
23499;DHT22;11926;48.120;11.562;2023-05-10T08:42:53;17.70;84.50
23499;DHT22;11926;48.120;11.562;2023-05-10T08:45:44;17.60;85.40
23499;DHT22;11926;48.120;11.562;2023-05-10T08:48:34;17.60;85.80
23499;DHT22;11926;48.120;11.562;2023-05-10T08:51:24;17.60;85.90
23499;DHT22;11926;48.120;11.562;2023-05-10T08:54:14;17.60;85.80
23499;DHT22;11926;48.120;11.562;2023-05-10T08:57:02;17.50;85.70
23499;DHT22;11926;48.120;11.562;2023-05-10T08:59:49;17.40;85.80
23499;DHT22;11926;48.120;11.562;2023-05-10T09:02:37;17.30;86.20
23499;DHT22;11926;48.120;11.562;2023-05-10T09:05:25;17.30;86.80
23499;DHT22;11926;48.120;11.562;2023-05-10T09:08:13;17.50;88.50
23499;DHT22;11926;48.120;11.562;2023-05-10T09:11:03;19.00;87.80
23499;DHT22;11926;48.120;11.562;2023-05-10T09:13:51;21.50;81.70
23499;DHT22;11926;48.120;11.562;2023-05-10T09:16:40;22.80;77.00
23499;DHT22;11926;48.120;11.562;2023-05-10T09:19:28;22.30;71.30
23499;DHT22;11926;48.120;11.562;2023-05-10T09:22:16;21.70;72.00
23499;DHT22;11926;48.120;11.562;2023-05-10T09:25:05;21.00;73.40
23499;DHT22;11926;48.120;11.562;2023-05-10T09:27:55;20.50;73.40
23499;DHT22;11926;48.120;11.562;2023-05-10T09:30:42;19.80;74.80
23499;DHT22;11926;48.120;11.562;2023-05-10T09:33:29;19.30;75.80
23499;DHT22;11926;48.120;11.562;2023-05-10T09:36:28;19.00;77.40
23499;DHT22;11926;48.120;11.562;2023-05-10T09:39:15;18.70;79.00
23499;DHT22;11926;48.120;11.562;2023-05-10T09:42:06;18.60;79.10
23499;DHT22;11926;48.120;11.562;2023-05-10T09:45:00;18.60;79.30
23499;DHT22;11926;48.120;11.562;2023-05-10T09:47:48;18.60;79.90
23499;DHT22;11926;48.120;11.562;2023-05-10T09:50:35;18.60;79.10
23499;DHT22;11926;48.120;11.562;2023-05-10T09:53:22;18.60;79.10
23499;DHT22;11926;48.120;11.562;2023-05-10T09:56:09;18.70;78.80
23499;DHT22;11926;48.120;11.562;2023-05-10T09:59:02;18.90;78.90
23499;DHT22;11926;48.120;11.562;2023-05-10T10:01:51;19.20;78.20
23499;DHT22;11926;48.120;11.562;2023-05-10T10:04:39;19.30;77.10
23499;DHT22;11926;48.120;11.562;2023-05-10T10:07:27;19.30;77.10
23499;DHT22;11926;48.120;11.562;2023-05-10T10:10:14;19.40;77.30
23499;DHT22;11926;48.120;11.562;2023-05-10T10:13:02;19.60;77.50
23499;DHT22;11926;48.120;11.562;2023-05-10T10:15:51;19.80;75.50
23499;DHT22;11926;48.120;11.562;2023-05-10T10:18:42;19.70;75.30
23499;DHT22;11926;48.120;11.562;2023-05-10T10:21:29;19.80;75.00
23499;DHT22;11926;48.120;11.562;2023-05-10T10:24:17;19.80;74.00
23499;DHT22;11926;48.120;11.562;2023-05-10T10:27:15;19.90;74.50
23499;DHT22;11926;48.120;11.562;2023-05-10T10:30:14;20.00;75.00
23499;DHT22;11926;48.120;11.562;2023-05-10T10:33:28;20.30;74.60
23499;DHT22;11926;48.120;11.562;2023-05-10T10:36:19;20.60;75.10
23499;DHT22;11926;48.120;11.562;2023-05-10T10:39:10;20.90;75.00
23499;DHT22;11926;48.120;11.562;2023-05-10T10:41:58;21.40;72.40
23499;DHT22;11926;48.120;11.562;2023-05-10T10:44:45;21.80;71.70
23499;DHT22;11926;48.120;11.562;2023-05-10T10:47:33;22.00;69.80
23499;DHT22;11926;48.120;11.562;2023-05-10T10:50:22;21.90;68.70
23499;DHT22;11926;48.120;11.562;2023-05-10T10:53:12;21.70;68.10
23499;DHT22;11926;48.120;11.562;2023-05-10T10:56:06;21.40;67.70
23499;DHT22;11926;48.120;11.562;2023-05-10T10:59:00;21.10;67.80
23499;DHT22;11926;48.120;11.562;2023-05-10T11:01:51;20.70;70.40
23499;DHT22;11926;48.120;11.562;2023-05-10T11:04:42;20.30;71.30
23499;DHT22;11926;48.120;11.562;2023-05-10T11:07:32;20.00;72.20
23499;DHT22;11926;48.120;11.562;2023-05-10T11:10:21;19.70;74.40
23499;DHT22;11926;48.120;11.562;2023-05-10T11:13:09;19.50;76.20
23499;DHT22;11926;48.120;11.562;2023-05-10T11:15:57;19.20;76.70
23499;DHT22;11926;48.120;11.562;2023-05-10T11:18:54;19.00;78.40
23499;DHT22;11926;48.120;11.562;2023-05-10T11:21:46;18.90;79.30
23499;DHT22;11926;48.120;11.562;2023-05-10T11:24:35;18.80;79.50
23499;DHT22;11926;48.120;11.562;2023-05-10T11:27:25;18.70;79.60
23499;DHT22;11926;48.120;11.562;2023-05-10T11:30:13;18.60;80.40
23499;DHT22;11926;48.120;11.562;2023-05-10T11:33:01;18.30;80.90
23499;DHT22;11926;48.120;11.562;2023-05-10T11:35:48;18.10;81.70
23499;DHT22;11926;48.120;11.562;2023-05-10T11:38:36;17.80;82.60
23499;DHT22;11926;48.120;11.562;2023-05-10T11:41:23;17.50;83.60
23499;DHT22;11926;48.120;11.562;2023-05-10T11:44:12;17.30;84.40
23499;DHT22;11926;48.120;11.562;2023-05-10T11:47:00;17.00;85.60
23499;DHT22;11926;48.120;11.562;2023-05-10T11:49:50;16.80;86.70
23499;DHT22;11926;48.120;11.562;2023-05-10T11:52:38;16.70;87.60
23499;DHT22;11926;48.120;11.562;2023-05-10T11:55:26;16.60;88.00
23499;DHT22;11926;48.120;11.562;2023-05-10T11:58:13;16.40;88.40
23499;DHT22;11926;48.120;11.562;2023-05-10T12:01:06;16.30;88.90
23499;DHT22;11926;48.120;11.562;2023-05-10T12:03:57;16.20;89.60
23499;DHT22;11926;48.120;11.562;2023-05-10T12:06:46;16.10;90.00
23499;DHT22;11926;48.120;11.562;2023-05-10T12:09:33;15.90;90.10
23499;DHT22;11926;48.120;11.562;2023-05-10T12:12:37;15.90;90.30
23499;DHT22;11926;48.120;11.562;2023-05-10T12:15:24;15.80;90.30
23499;DHT22;11926;48.120;11.562;2023-05-10T12:18:15;15.80;90.70
23499;DHT22;11926;48.120;11.562;2023-05-10T12:21:11;15.70;90.90
23499;DHT22;11926;48.120;11.562;2023-05-10T12:24:01;15.70;90.90
23499;DHT22;11926;48.120;11.562;2023-05-10T12:26:50;15.60;91.00
23499;DHT22;11926;48.120;11.562;2023-05-10T12:29:41;15.60;91.30
23499;DHT22;11926;48.120;11.562;2023-05-10T12:32:38;15.60;91.50
23499;DHT22;11926;48.120;11.562;2023-05-10T12:35:30;15.60;91.70
23499;DHT22;11926;48.120;11.562;2023-05-10T12:38:26;15.70;91.80
23499;DHT22;11926;48.120;11.562;2023-05-10T12:41:16;15.80;92.00
23499;DHT22;11926;48.120;11.562;2023-05-10T12:44:04;15.80;92.00
23499;DHT22;11926;48.120;11.562;2023-05-10T12:46:51;15.90;92.20
23499;DHT22;11926;48.120;11.562;2023-05-10T12:49:38;15.90;91.80
23499;DHT22;11926;48.120;11.562;2023-05-10T12:52:27;16.00;91.70
23499;DHT22;11926;48.120;11.562;2023-05-10T12:55:14;16.00;91.70
23499;DHT22;11926;48.120;11.562;2023-05-10T12:58:01;15.90;91.90
23499;DHT22;11926;48.120;11.562;2023-05-10T13:00:49;15.90;91.80
23499;DHT22;11926;48.120;11.562;2023-05-10T13:03:37;15.90;92.10
23499;DHT22;11926;48.120;11.562;2023-05-10T13:06:24;16.00;92.20
23499;DHT22;11926;48.120;11.562;2023-05-10T13:09:13;16.10;91.90
23499;DHT22;11926;48.120;11.562;2023-05-10T13:12:01;16.10;92.00
23499;DHT22;11926;48.120;11.562;2023-05-10T13:14:48;16.10;92.40
23499;DHT22;11926;48.120;11.562;2023-05-10T13:17:36;16.20;92.20
23499;DHT22;11926;48.120;11.562;2023-05-10T13:20:25;16.20;91.90
23499;DHT22;11926;48.120;11.562;2023-05-10T13:23:12;16.30;92.10
23499;DHT22;11926;48.120;11.562;2023-05-10T13:26:01;16.30;92.10
23499;DHT22;11926;48.120;11.562;2023-05-10T13:28:49;16.40;92.00
23499;DHT22;11926;48.120;11.562;2023-05-10T13:31:37;16.40;92.10
23499;DHT22;11926;48.120;11.562;2023-05-10T13:34:25;16.40;92.10
23499;DHT22;11926;48.120;11.562;2023-05-10T13:37:12;16.30;91.90
23499;DHT22;11926;48.120;11.562;2023-05-10T13:39:59;16.20;92.10
23499;DHT22;11926;48.120;11.562;2023-05-10T13:42:48;16.10;92.00
23499;DHT22;11926;48.120;11.562;2023-05-10T13:45:35;16.10;92.20
23499;DHT22;11926;48.120;11.562;2023-05-10T13:48:23;16.10;92.20
23499;DHT22;11926;48.120;11.562;2023-05-10T13:51:10;16.00;92.30
23499;DHT22;11926;48.120;11.562;2023-05-10T13:53:58;16.00;92.20
23499;DHT22;11926;48.120;11.562;2023-05-10T13:56:46;15.90;92.20
23499;DHT22;11926;48.120;11.562;2023-05-10T13:59:35;15.80;92.40
23499;DHT22;11926;48.120;11.562;2023-05-10T14:02:23;15.80;92.50
23499;DHT22;11926;48.120;11.562;2023-05-10T14:05:11;15.80;92.60
23499;DHT22;11926;48.120;11.562;2023-05-10T14:07:59;15.80;92.50
23499;DHT22;11926;48.120;11.562;2023-05-10T14:10:46;15.80;92.70
23499;DHT22;11926;48.120;11.562;2023-05-10T14:13:35;15.90;92.40
23499;DHT22;11926;48.120;11.562;2023-05-10T14:16:23;15.90;92.60
23499;DHT22;11926;48.120;11.562;2023-05-10T14:19:11;15.90;92.40
23499;DHT22;11926;48.120;11.562;2023-05-10T14:21:59;15.80;92.70
23499;DHT22;11926;48.120;11.562;2023-05-10T14:24:46;15.90;92.60
23499;DHT22;11926;48.120;11.562;2023-05-10T14:27:34;15.90;92.70
23499;DHT22;11926;48.120;11.562;2023-05-10T14:30:21;15.90;92.60
23499;DHT22;11926;48.120;11.562;2023-05-10T14:33:10;15.90;92.70
23499;DHT22;11926;48.120;11.562;2023-05-10T14:35:57;15.90;92.70
23499;DHT22;11926;48.120;11.562;2023-05-10T14:38:45;16.00;92.70
23499;DHT22;11926;48.120;11.562;2023-05-10T14:41:33;16.00;92.60
23499;DHT22;11926;48.120;11.562;2023-05-10T14:44:20;16.00;92.50
23499;DHT22;11926;48.120;11.562;2023-05-10T14:47:07;15.90;92.70
23499;DHT22;11926;48.120;11.562;2023-05-10T14:49:59;15.90;92.60
23499;DHT22;11926;48.120;11.562;2023-05-10T14:52:46;15.80;92.40
23499;DHT22;11926;48.120;11.562;2023-05-10T14:55:33;15.60;92.40
23499;DHT22;11926;48.120;11.562;2023-05-10T14:58:21;15.60;92.60
23499;DHT22;11926;48.120;11.562;2023-05-10T15:01:08;15.50;92.60
23499;DHT22;11926;48.120;11.562;2023-05-10T15:03:56;15.40;92.80
23499;DHT22;11926;48.120;11.562;2023-05-10T15:06:45;15.30;92.90
23499;DHT22;11926;48.120;11.562;2023-05-10T15:09:32;15.40;93.00
23499;DHT22;11926;48.120;11.562;2023-05-10T15:12:19;15.30;93.00
23499;DHT22;11926;48.120;11.562;2023-05-10T15:15:07;15.20;92.80
23499;DHT22;11926;48.120;11.562;2023-05-10T15:17:54;15.20;93.00
23499;DHT22;11926;48.120;11.562;2023-05-10T15:20:42;15.10;93.10
23499;DHT22;11926;48.120;11.562;2023-05-10T15:23:30;15.10;93.30
23499;DHT22;11926;48.120;11.562;2023-05-10T15:26:18;15.10;93.60
23499;DHT22;11926;48.120;11.562;2023-05-10T15:29:05;15.10;93.40
23499;DHT22;11926;48.120;11.562;2023-05-10T15:31:52;15.10;93.40
23499;DHT22;11926;48.120;11.562;2023-05-10T15:34:40;15.10;93.30
23499;DHT22;11926;48.120;11.562;2023-05-10T15:37:27;15.10;93.20
23499;DHT22;11926;48.120;11.562;2023-05-10T15:40:15;15.00;93.20
23499;DHT22;11926;48.120;11.562;2023-05-10T15:43:03;14.90;93.30
23499;DHT22;11926;48.120;11.562;2023-05-10T15:45:50;14.90;93.50
23499;DHT22;11926;48.120;11.562;2023-05-10T15:48:38;14.90;93.40
23499;DHT22;11926;48.120;11.562;2023-05-10T15:51:26;14.80;93.50
23499;DHT22;11926;48.120;11.562;2023-05-10T15:54:13;14.70;93.70
23499;DHT22;11926;48.120;11.562;2023-05-10T15:57:02;14.70;93.60
23499;DHT22;11926;48.120;11.562;2023-05-10T15:59:50;14.70;93.60
23499;DHT22;11926;48.120;11.562;2023-05-10T16:02:37;14.60;93.50
23499;DHT22;11926;48.120;11.562;2023-05-10T16:05:25;14.50;93.70
23499;DHT22;11926;48.120;11.562;2023-05-10T16:08:16;14.40;93.80
23499;DHT22;11926;48.120;11.562;2023-05-10T16:11:04;14.40;94.00
23499;DHT22;11926;48.120;11.562;2023-05-10T16:13:52;14.40;94.10
23499;DHT22;11926;48.120;11.562;2023-05-10T16:16:40;14.40;94.10
23499;DHT22;11926;48.120;11.562;2023-05-10T16:19:28;14.40;94.20
23499;DHT22;11926;48.120;11.562;2023-05-10T16:22:16;14.40;94.20
23499;DHT22;11926;48.120;11.562;2023-05-10T16:25:04;14.40;94.20
23499;DHT22;11926;48.120;11.562;2023-05-10T16:27:51;14.40;94.30
23499;DHT22;11926;48.120;11.562;2023-05-10T16:30:40;14.40;94.40
23499;DHT22;11926;48.120;11.562;2023-05-10T16:33:27;14.40;94.40
23499;DHT22;11926;48.120;11.562;2023-05-10T16:36:15;14.30;94.40
23499;DHT22;11926;48.120;11.562;2023-05-10T16:39:02;14.30;94.50
23499;DHT22;11926;48.120;11.562;2023-05-10T16:41:50;14.30;94.50
23499;DHT22;11926;48.120;11.562;2023-05-10T16:44:37;14.30;94.60
23499;DHT22;11926;48.120;11.562;2023-05-10T16:47:26;14.20;94.40
23499;DHT22;11926;48.120;11.562;2023-05-10T16:50:13;14.20;94.60
23499;DHT22;11926;48.120;11.562;2023-05-10T16:53:00;14.20;94.60
23499;DHT22;11926;48.120;11.562;2023-05-10T16:55:48;14.20;94.70
23499;DHT22;11926;48.120;11.562;2023-05-10T16:58:35;14.10;94.70
23499;DHT22;11926;48.120;11.562;2023-05-10T17:01:22;14.00;94.80
23499;DHT22;11926;48.120;11.562;2023-05-10T17:04:13;14.00;94.70
23499;DHT22;11926;48.120;11.562;2023-05-10T17:07:01;13.90;94.70
23499;DHT22;11926;48.120;11.562;2023-05-10T17:09:48;13.80;94.70
23499;DHT22;11926;48.120;11.562;2023-05-10T17:12:35;13.70;94.70
23499;DHT22;11926;48.120;11.562;2023-05-10T17:15:22;13.60;94.60
23499;DHT22;11926;48.120;11.562;2023-05-10T17:18:10;13.50;94.70
23499;DHT22;11926;48.120;11.562;2023-05-10T17:20:59;13.40;94.80
23499;DHT22;11926;48.120;11.562;2023-05-10T17:23:46;13.30;94.80
23499;DHT22;11926;48.120;11.562;2023-05-10T17:26:34;13.20;94.90
23499;DHT22;11926;48.120;11.562;2023-05-10T17:29:21;13.20;95.10
23499;DHT22;11926;48.120;11.562;2023-05-10T17:32:08;13.20;95.30
23499;DHT22;11926;48.120;11.562;2023-05-10T17:34:56;13.20;95.60